Time;durP1;ratioP1;P1;durP2;ratioP2;P2;SDS_P1;SDS_P2;PMS_P1;PMS_P2;Temp;Humidity;BMP_temperature;BMP_pressure;BME280_temperature;BME280_humidity;BME280_pressure;Samples;Min_cycle;Max_cycle;Signal;HPM_P1;HPM_P2
2023/05/26 00:01:24;;;;;;;26.13;5.75;;;10.40;99.90;;;;;;5092430;28;20059;-82
2023/05/26 00:04:12;;;;;;;24.60;5.18;;;10.40;99.90;;;;;;5093206;28;20044;-81
2023/05/26 00:06:58;;;;;;;33.70;6.18;;;10.40;99.90;;;;;;5093120;28;20659;-81
2023/05/26 00:13:27;;;;;;;29.50;4.82;;;10.40;99.90;;;;;;5091691;28;20052;-82
2023/05/26 00:16:13;;;;;;;27.88;5.88;;;10.30;99.90;;;;;;5092100;28;20063;-82
2023/05/26 00:19:00;;;;;;;27.88;4.88;;;10.30;99.90;;;;;;5074554;28;20059;-85
2023/05/26 00:21:46;;;;;;;31.95;5.15;;;10.30;99.90;;;;;;5092320;28;20112;-85
2023/05/26 00:24:33;;;;;;;20.30;4.90;;;10.30;99.90;;;;;;5092151;28;20063;-87
2023/05/26 00:27:19;;;;;;;25.27;5.00;;;10.20;99.90;;;;;;5090968;28;20507;-84
2023/05/26 00:30:06;;;;;;;29.67;5.05;;;10.30;99.90;;;;;;5091736;28;20051;-86
2023/05/26 00:32:52;;;;;;;32.75;6.07;;;10.20;99.90;;;;;;5091944;28;20059;-87
2023/05/26 00:35:38;;;;;;;23.05;4.40;;;10.20;99.90;;;;;;5073511;28;20052;-86
2023/05/26 00:38:24;;;;;;;18.90;4.75;;;10.20;99.90;;;;;;5073472;28;20062;-85
2023/05/26 00:41:10;;;;;;;27.17;4.82;;;10.20;99.90;;;;;;5090546;28;20117;-84
2023/05/26 00:43:57;;;;;;;26.58;5.05;;;10.20;99.90;;;;;;5091558;28;20587;-83
2023/05/26 00:46:43;;;;;;;23.55;5.72;;;10.20;99.90;;;;;;5091639;28;20112;-87
2023/05/26 00:49:29;;;;;;;21.08;4.53;;;10.20;99.90;;;;;;5074068;28;20067;-86
2023/05/26 00:52:15;;;;;;;24.85;4.90;;;10.10;99.90;;;;;;5073246;28;20113;-84
2023/05/26 00:55:02;;;;;;;30.45;6.45;;;10.10;99.90;;;;;;5073251;28;20105;-85
2023/05/26 00:57:48;;;;;;;26.45;4.28;;;10.10;99.90;;;;;;5090446;28;20089;-84
2023/05/26 01:00:35;;;;;;;22.50;5.25;;;10.10;99.90;;;;;;5091035;28;20109;-86
2023/05/26 01:03:22;;;;;;;30.42;6.47;;;10.10;99.90;;;;;;5077684;28;20124;-84
2023/05/26 01:06:08;;;;;;;19.38;5.03;;;10.10;99.90;;;;;;5072645;28;20055;-82
2023/05/26 01:08:55;;;;;;;30.70;4.90;;;10.10;99.90;;;;;;5073092;28;20826;-85
2023/05/26 01:11:58;;;;;;;29.25;5.85;;;10.10;99.90;;;;;;5073856;28;20138;-86
2023/05/26 01:14:54;;;;;;;33.00;5.05;;;10.10;99.90;;;;;;5091098;28;20062;-84
2023/05/26 01:17:52;;;;;;;30.40;5.13;;;10.00;99.90;;;;;;5076429;28;20484;-87
2023/05/26 01:21:12;;;;;;;36.42;7.03;;;10.00;99.90;;;;;;5072528;28;20048;-86
2023/05/26 01:24:49;;;;;;;23.95;5.53;;;10.00;99.90;;;;;;5072397;28;20052;-84
2023/05/26 01:28:00;;;;;;;21.02;4.43;;;10.00;99.90;;;;;;5049467;28;20098;-86
2023/05/26 01:30:48;;;;;;;29.65;6.47;;;9.90;99.90;;;;;;5072006;28;20052;-86
2023/05/26 01:33:35;;;;;;;29.50;6.60;;;10.00;99.90;;;;;;5071411;28;20407;-85
2023/05/26 01:36:21;;;;;;;25.30;5.30;;;10.00;99.90;;;;;;5090450;28;20121;-85
2023/05/26 01:39:10;;;;;;;32.10;5.53;;;9.90;99.90;;;;;;5072492;28;20095;-82
2023/05/26 01:42:03;;;;;;;22.25;4.35;;;9.90;99.90;;;;;;5072636;28;20055;-81
2023/05/26 01:45:03;;;;;;;21.58;5.00;;;10.00;99.90;;;;;;5090548;28;20051;-84
2023/05/26 01:47:53;;;;;;;26.70;6.40;;;10.00;99.90;;;;;;5088291;28;20492;-85
2023/05/26 01:50:45;;;;;;;24.98;4.70;;;10.00;99.90;;;;;;5071863;28;20052;-84
2023/05/26 01:53:33;;;;;;;27.92;5.95;;;9.90;99.90;;;;;;5073184;28;20143;-85
2023/05/26 01:56:21;;;;;;;23.70;5.03;;;10.00;99.90;;;;;;5090829;28;20063;-84
2023/05/26 01:59:08;;;;;;;24.45;6.03;;;10.00;99.90;;;;;;5090791;28;20468;-85
2023/05/26 02:01:54;;;;;;;34.20;6.60;;;10.00;99.90;;;;;;5089945;28;20051;-84
2023/05/26 02:04:40;;;;;;;28.67;5.72;;;10.00;99.90;;;;;;5072255;28;20424;-85
2023/05/26 02:07:26;;;;;;;33.28;4.80;;;10.10;99.90;;;;;;5089142;28;20056;-86
2023/05/26 02:10:12;;;;;;;23.50;4.88;;;10.10;99.90;;;;;;5072074;28;20397;-85
2023/05/26 02:12:58;;;;;;;25.25;6.55;;;10.10;99.90;;;;;;5071556;28;20054;-84
2023/05/26 02:15:44;;;;;;;26.10;5.15;;;10.10;99.90;;;;;;5088832;28;20044;-84
2023/05/26 02:18:31;;;;;;;24.45;4.78;;;10.10;99.90;;;;;;5089933;28;20059;-87
2023/05/26 02:21:17;;;;;;;27.00;6.65;;;10.00;99.90;;;;;;5088851;28;20044;-81
2023/05/26 02:24:03;;;;;;;23.10;5.18;;;10.00;99.90;;;;;;5090072;28;20500;-83
2023/05/26 02:26:49;;;;;;;28.67;5.93;;;10.00;99.90;;;;;;5071892;28;20052;-85
2023/05/26 02:29:35;;;;;;;23.45;4.78;;;10.00;99.90;;;;;;5090172;28;20803;-86
2023/05/26 02:32:21;;;;;;;21.58;5.38;;;10.00;99.90;;;;;;5071860;28;20048;-84
2023/05/26 02:35:08;;;;;;;24.13;4.80;;;10.00;99.90;;;;;;5088570;28;20044;-85
2023/05/26 02:37:55;;;;;;;19.80;4.00;;;10.00;99.90;;;;;;5072030;28;20196;-83
2023/05/26 02:40:41;;;;;;;26.35;4.68;;;9.90;99.90;;;;;;5088577;28;20059;-86
2023/05/26 02:43:27;;;;;;;23.70;5.05;;;9.90;99.90;;;;;;5088259;28;20121;-85
2023/05/26 02:46:13;;;;;;;26.23;5.35;;;9.90;99.90;;;;;;5088600;28;20052;-84
2023/05/26 02:49:02;;;;;;;33.22;5.95;;;9.90;99.90;;;;;;5071490;28;20480;-84
2023/05/26 02:51:48;;;;;;;34.65;5.80;;;9.90;99.90;;;;;;5089301;28;20150;-83
2023/05/26 02:54:34;;;;;;;34.42;5.13;;;9.90;99.90;;;;;;5093609;28;20116;-84
2023/05/26 02:57:21;;;;;;;20.00;5.53;;;9.90;99.90;;;;;;5075533;28;20086;-84
2023/05/26 03:00:10;;;;;;;31.05;5.95;;;9.90;99.90;;;;;;5092126;28;20059;-86
2023/05/26 03:02:56;;;;;;;23.00;4.40;;;9.90;99.90;;;;;;5093588;28;20052;-84
2023/05/26 03:05:42;;;;;;;28.65;4.80;;;9.90;99.90;;;;;;5076552;28;20055;-82
2023/05/26 03:08:28;;;;;;;25.98;5.05;;;9.90;99.90;;;;;;5075122;28;20068;-84
2023/05/26 03:11:15;;;;;;;22.35;4.65;;;9.80;99.90;;;;;;5076249;28;20048;-84
2023/05/26 03:14:01;;;;;;;26.00;5.57;;;9.80;99.90;;;;;;5075346;28;20143;-85
2023/05/26 03:16:47;;;;;;;26.80;4.82;;;9.80;99.90;;;;;;5093104;28;20500;-83
2023/05/26 03:19:33;;;;;;;25.58;4.75;;;9.90;99.90;;;;;;5092947;28;20056;-84
2023/05/26 03:22:19;;;;;;;22.10;5.13;;;9.90;99.90;;;;;;5076238;28;20091;-87
2023/05/26 03:25:06;;;;;;;25.10;4.90;;;9.90;99.90;;;;;;5092256;28;20496;-83
2023/05/26 03:27:52;;;;;;;32.00;4.60;;;9.90;99.90;;;;;;5093261;28;20061;-86
2023/05/26 03:30:38;;;;;;;20.55;4.68;;;9.90;99.90;;;;;;5092660;28;20511;-84
2023/05/26 03:33:24;;;;;;;27.27;6.18;;;9.90;99.90;;;;;;5092974;28;20059;-84
2023/05/26 03:36:10;;;;;;;36.90;5.65;;;9.90;99.90;;;;;;5074485;28;20059;-86
2023/05/26 03:38:56;;;;;;;25.65;5.18;;;9.90;99.90;;;;;;5092124;28;20056;-85
2023/05/26 03:41:42;;;;;;;20.65;5.80;;;9.90;99.90;;;;;;5091719;28;20432;-84
2023/05/26 03:44:28;;;;;;;26.85;5.30;;;9.90;99.90;;;;;;5093339;28;20458;-85
2023/05/26 03:47:15;;;;;;;21.08;5.18;;;9.90;99.90;;;;;;5074534;28;20060;-82
2023/05/26 03:50:01;;;;;;;22.63;5.65;;;9.90;99.90;;;;;;5093226;28;20052;-85
2023/05/26 03:52:48;;;;;;;29.02;4.90;;;9.90;99.90;;;;;;5092598;28;20048;-84
2023/05/26 03:55:34;;;;;;;30.30;5.03;;;10.00;99.90;;;;;;5073874;28;20094;-84
2023/05/26 03:58:20;;;;;;;23.13;4.50;;;10.00;99.90;;;;;;5074593;28;20159;-81
2023/05/26 04:01:07;;;;;;;25.63;4.35;;;10.00;99.90;;;;;;5092403;28;20629;-80
2023/05/26 04:03:53;;;;;;;22.52;4.75;;;10.00;99.90;;;;;;5091959;28;20055;-79
2023/05/26 04:06:40;;;;;;;21.98;3.78;;;10.10;99.90;;;;;;5091188;28;20051;-80
2023/05/26 04:09:26;;;;;;;22.67;4.22;;;10.10;99.90;;;;;;5074586;28;20052;-82
2023/05/26 04:12:12;;;;;;;25.58;4.72;;;10.10;99.90;;;;;;5074277;28;20079;-82
2023/05/26 04:14:59;;;;;;;23.75;5.45;;;10.10;99.90;;;;;;5073813;28;20400;-82
2023/05/26 04:17:45;;;;;;;22.38;4.70;;;10.20;99.90;;;;;;5074308;28;20044;-81
2023/05/26 04:20:31;;;;;;;31.27;6.72;;;10.20;99.90;;;;;;5074713;28;20059;-81
2023/05/26 04:23:17;;;;;;;33.65;5.43;;;10.30;99.90;;;;;;5091931;28;20055;-81
2023/05/26 04:26:04;;;;;;;30.45;6.30;;;10.30;99.90;;;;;;5092837;28;20087;-82
2023/05/26 04:28:52;;;;;;;24.00;5.45;;;10.30;99.90;;;;;;5092327;28;20048;-82
2023/05/26 04:31:42;;;;;;;25.92;4.65;;;10.30;99.90;;;;;;5073809;28;20508;-82
2023/05/26 04:34:28;;;;;;;22.40;6.18;;;10.30;99.90;;;;;;5078653;28;20071;-82
2023/05/26 04:37:14;;;;;;;25.10;4.88;;;10.30;99.90;;;;;;5079472;28;20104;-84
2023/05/26 04:40:05;;;;;;;26.13;4.50;;;10.40;99.90;;;;;;5099219;28;20044;-85
2023/05/26 04:42:51;;;;;;;32.80;5.10;;;10.40;99.90;;;;;;5077710;28;20446;-81
2023/05/26 04:45:37;;;;;;;25.95;4.88;;;10.40;99.90;;;;;;5073068;28;20503;-81
2023/05/26 04:48:23;;;;;;;28.45;5.10;;;10.50;99.90;;;;;;5090005;28;20060;-82
2023/05/26 04:51:10;;;;;;;23.58;5.10;;;10.50;99.90;;;;;;5091255;28;20056;-82
2023/05/26 04:53:56;;;;;;;27.05;6.05;;;10.60;99.90;;;;;;5091252;28;20138;-82
2023/05/26 04:56:42;;;;;;;28.48;4.30;;;10.60;99.90;;;;;;5074121;28;20055;-85
2023/05/26 04:59:29;;;;;;;26.23;4.15;;;10.60;99.90;;;;;;5073075;28;20058;-83
2023/05/26 05:02:15;;;;;;;28.48;5.05;;;10.70;99.90;;;;;;5073336;28;20055;-81
2023/05/26 05:05:02;;;;;;;17.73;3.60;;;10.60;99.90;;;;;;5091306;28;20048;-84
2023/05/26 05:07:50;;;;;;;26.00;5.82;;;10.70;99.90;;;;;;5073301;28;20504;-81
2023/05/26 05:10:36;;;;;;;26.48;5.32;;;10.70;99.90;;;;;;5089832;28;20151;-83
2023/05/26 05:13:22;;;;;;;27.55;4.68;;;10.70;99.90;;;;;;5075259;28;20063;-81
2023/05/26 05:16:08;;;;;;;23.02;6.15;;;10.80;99.90;;;;;;5089794;28;20070;-82
2023/05/26 05:18:59;;;;;;;24.75;5.18;;;10.90;99.90;;;;;;5076902;28;20206;-81
2023/05/26 05:21:45;;;;;;;28.65;5.38;;;11.10;99.90;;;;;;5072380;28;20085;-82
2023/05/26 05:24:31;;;;;;;20.90;4.57;;;11.10;99.90;;;;;;5089470;28;20079;-83
2023/05/26 05:27:17;;;;;;;24.73;3.83;;;11.30;99.90;;;;;;5089879;28;20420;-82
2023/05/26 05:30:04;;;;;;;29.00;4.93;;;11.30;99.90;;;;;;5090717;28;20058;-82
2023/05/26 05:32:50;;;;;;;21.92;4.38;;;11.40;99.90;;;;;;5090200;28;20526;-82
2023/05/26 05:35:36;;;;;;;33.22;5.97;;;11.50;99.90;;;;;;5091431;28;20055;-81
2023/05/26 05:38:22;;;;;;;21.00;4.13;;;11.60;99.90;;;;;;5072784;28;20044;-82
2023/05/26 05:41:09;;;;;;;26.83;5.18;;;11.70;99.90;;;;;;5090537;28;20055;-82
2023/05/26 05:43:56;;;;;;;27.73;4.32;;;11.80;99.90;;;;;;5090283;28;20040;-84
2023/05/26 05:46:42;;;;;;;25.25;4.45;;;11.90;99.90;;;;;;5090899;28;20510;-81
2023/05/26 05:49:28;;;;;;;26.17;3.97;;;12.00;99.90;;;;;;5072112;28;20052;-82
2023/05/26 05:52:14;;;;;;;19.77;4.28;;;12.10;99.90;;;;;;5090372;28;20051;-82
2023/05/26 05:55:01;;;;;;;24.40;5.07;;;12.20;99.90;;;;;;5089699;28;20084;-83
2023/05/26 05:57:47;;;;;;;29.13;4.30;;;12.30;99.90;;;;;;5072153;28;20057;-85
2023/05/26 06:00:33;;;;;;;19.13;5.32;;;12.40;99.90;;;;;;5072257;28;20142;-82
2023/05/26 06:03:19;;;;;;;28.10;4.97;;;12.50;99.90;;;;;;5090099;28;20056;-81
2023/05/26 06:06:05;;;;;;;27.02;6.13;;;12.50;99.90;;;;;;5072112;28;20048;-83
2023/05/26 06:08:51;;;;;;;23.50;4.70;;;12.60;99.90;;;;;;5072815;28;20152;-86
2023/05/26 06:11:37;;;;;;;20.77;3.83;;;12.80;99.90;;;;;;5074276;28;20052;-81
2023/05/26 06:14:23;;;;;;;27.40;5.18;;;12.90;99.90;;;;;;5089963;28;20503;-81
2023/05/26 06:17:10;;;;;;;23.98;4.80;;;13.00;99.90;;;;;;5074200;28;20114;-84
2023/05/26 06:19:56;;;;;;;23.63;5.07;;;13.10;99.90;;;;;;5088462;28;20419;-83
2023/05/26 06:22:42;;;;;;;28.60;4.40;;;13.20;99.90;;;;;;5088384;28;20091;-82
2023/05/26 06:25:28;;;;;;;19.58;3.88;;;13.20;99.90;;;;;;5072450;28;20052;-85
2023/05/26 06:28:14;;;;;;;22.15;4.28;;;13.30;99.90;;;;;;5090897;28;20055;-82
2023/05/26 06:31:02;;;;;;;24.48;5.50;;;13.50;99.90;;;;;;5071768;28;20064;-82
2023/05/26 06:33:48;;;;;;;21.50;4.75;;;13.50;99.90;;;;;;5090949;28;20465;-82
2023/05/26 06:36:35;;;;;;;19.90;5.07;;;13.50;99.90;;;;;;5072512;28;20412;-82
2023/05/26 06:39:24;;;;;;;15.98;4.13;;;13.60;99.90;;;;;;5089594;28;20144;-81
2023/05/26 06:42:10;;;;;;;28.05;3.90;;;13.70;99.90;;;;;;5090453;28;20052;-83
2023/05/26 06:44:56;;;;;;;30.92;3.92;;;13.90;99.90;;;;;;5090993;28;20113;-81
2023/05/26 06:47:42;;;;;;;23.85;4.35;;;13.90;99.90;;;;;;5072883;28;20058;-83
2023/05/26 06:50:28;;;;;;;22.45;4.05;;;14.00;99.90;;;;;;5071425;28;20055;-83
2023/05/26 06:53:14;;;;;;;21.90;3.65;;;14.10;99.90;;;;;;5088588;28;20056;-81
2023/05/26 06:56:00;;;;;;;21.67;4.32;;;14.20;99.90;;;;;;5089841;28;20553;-82
2023/05/26 06:58:46;;;;;;;21.88;4.68;;;14.20;99.90;;;;;;5071994;28;20059;-83
2023/05/26 07:01:32;;;;;;;16.60;3.50;;;14.50;99.90;;;;;;5071666;28;20059;-86
2023/05/26 07:04:18;;;;;;;21.13;3.65;;;14.60;99.90;;;;;;5090015;28;20048;-80
2023/05/26 07:07:04;;;;;;;28.38;4.90;;;14.50;99.50;;;;;;5070889;28;20062;-80
2023/05/26 07:09:50;;;;;;;19.80;4.40;;;14.70;99.20;;;;;;5088289;28;20155;-81
2023/05/26 07:12:37;;;;;;;23.23;3.97;;;14.90;99.10;;;;;;5089344;28;20129;-81
2023/05/26 07:15:23;;;;;;;13.65;3.55;;;14.80;98.80;;;;;;5089261;28;20062;-86
2023/05/26 07:18:10;;;;;;;22.35;5.28;;;14.90;98.70;;;;;;5089341;28;20101;-80
2023/05/26 07:20:56;;;;;;;14.27;3.83;;;15.00;98.60;;;;;;5071079;28;20059;-81
2023/05/26 07:23:43;;;;;;;16.48;3.65;;;15.10;98.60;;;;;;5088177;28;20408;-80
2023/05/26 07:26:29;;;;;;;22.10;4.32;;;15.40;98.60;;;;;;5071004;28;20048;-84
2023/05/26 07:29:16;;;;;;;27.60;4.38;;;15.60;98.40;;;;;;5070854;28;20060;-83
2023/05/26 07:32:02;;;;;;;17.00;3.05;;;15.70;98.20;;;;;;5088994;28;20048;-83
2023/05/26 07:34:48;;;;;;;25.95;4.13;;;15.80;97.60;;;;;;5089664;28;20052;-89
2023/05/26 07:37:34;;;;;;;18.10;4.10;;;15.90;97.60;;;;;;5090470;28;20052;-82
2023/05/26 07:40:20;;;;;;;17.38;3.45;;;16.00;97.40;;;;;;5077873;28;20052;-85
2023/05/26 07:43:11;;;;;;;25.33;4.68;;;16.10;97.10;;;;;;5075162;28;20202;-85
2023/05/26 07:45:59;;;;;;;19.52;4.28;;;16.20;96.60;;;;;;5093049;28;20052;-85
2023/05/26 07:48:45;;;;;;;15.40;3.22;;;16.40;96.50;;;;;;5074359;28;20090;-84
2023/05/26 07:51:32;;;;;;;17.77;4.45;;;16.60;96.40;;;;;;5092556;28;20488;-83
2023/05/26 07:54:18;;;;;;;16.33;4.22;;;16.60;96.20;;;;;;5091461;28;20071;-82
2023/05/26 07:57:05;;;;;;;17.65;3.47;;;16.60;95.80;;;;;;5074338;28;20565;-88
2023/05/26 07:59:51;;;;;;;14.18;3.83;;;16.60;95.80;;;;;;5074881;28;20064;-86
2023/05/26 08:02:38;;;;;;;15.77;3.47;;;16.60;95.20;;;;;;5091044;28;20051;-82
2023/05/26 08:05:26;;;;;;;17.30;4.00;;;16.60;95.10;;;;;;5078360;28;20052;-88
2023/05/26 08:08:12;;;;;;;15.90;3.28;;;16.70;95.20;;;;;;5092304;28;20146;-82
2023/05/26 08:10:58;;;;;;;18.17;3.83;;;16.80;95.10;;;;;;5090968;28;20419;-84
2023/05/26 08:13:44;;;;;;;19.90;3.83;;;16.80;94.80;;;;;;5093651;28;20139;-83
2023/05/26 08:16:31;;;;;;;16.73;3.70;;;16.90;94.70;;;;;;5060497;28;20062;-86
2023/05/26 08:19:17;;;;;;;28.45;4.10;;;17.20;95.00;;;;;;5092112;28;20056;-84
2023/05/26 08:22:03;;;;;;;18.23;4.25;;;17.30;94.80;;;;;;5092481;28;20059;-83
2023/05/26 08:24:49;;;;;;;14.38;3.28;;;17.40;95.10;;;;;;5074092;28;20396;-84
2023/05/26 08:27:35;;;;;;;18.80;4.15;;;17.50;94.50;;;;;;5073978;28;20112;-82
2023/05/26 08:30:21;;;;;;;21.48;4.05;;;17.40;93.90;;;;;;5090480;28;20151;-83
2023/05/26 08:33:07;;;;;;;15.05;3.33;;;17.60;93.50;;;;;;5092183;28;20070;-84
2023/05/26 08:35:53;;;;;;;16.73;3.83;;;17.80;93.30;;;;;;5091806;28;20162;-89
2023/05/26 08:38:40;;;;;;;15.63;4.07;;;17.90;93.30;;;;;;5073671;28;20511;-87
2023/05/26 08:41:32;;;;;;;16.58;4.18;;;17.90;93.00;;;;;;5091743;28;20082;-89
2023/05/26 08:44:18;;;;;;;15.50;3.38;;;18.10;92.90;;;;;;5091821;28;20467;-87
2023/05/26 08:47:05;;;;;;;15.43;3.08;;;18.00;92.70;;;;;;5073776;28;20048;-87
2023/05/26 08:50:00;;;;;;;17.50;3.63;;;18.10;92.80;;;;;;5090881;28;20200;-88
2023/05/26 08:52:48;;;;;;;18.48;3.83;;;18.50;92.90;;;;;;5091364;28;20666;-87
2023/05/26 08:55:34;;;;;;;18.48;3.72;;;18.60;92.50;;;;;;5090768;28;20063;-86
2023/05/26 08:58:22;;;;;;;15.95;3.42;;;18.70;91.90;;;;;;5073324;28;20415;-88
2023/05/26 09:01:09;;;;;;;17.33;3.80;;;18.60;91.70;;;;;;5091607;28;20048;-89
2023/05/26 09:03:55;;;;;;;14.90;3.00;;;18.70;91.70;;;;;;5090920;28;20047;-88
2023/05/26 09:06:42;;;;;;;14.68;3.50;;;18.60;91.10;;;;;;5091119;28;20087;-89
2023/05/26 09:09:29;;;;;;;18.38;4.05;;;18.40;91.30;;;;;;5072808;28;20114;-90
2023/05/26 09:12:15;;;;;;;15.88;3.42;;;18.80;91.80;;;;;;5072908;28;20063;-88
2023/05/26 09:15:02;;;;;;;18.10;4.22;;;19.00;91.70;;;;;;5089618;28;20048;-89
2023/05/26 09:17:48;;;;;;;20.50;4.40;;;19.30;91.50;;;;;;5057997;28;20091;-87
2023/05/26 09:20:43;;;;;;;11.77;3.67;;;19.30;91.20;;;;;;5089750;28;20415;-87
2023/05/26 09:23:28;;;;;;;12.15;3.03;;;19.10;90.60;;;;;;5072481;28;20036;-90
2023/05/26 09:26:16;;;;;;;18.80;3.72;;;19.30;90.60;;;;;;5091079;28;20160;-89
2023/05/26 09:29:04;;;;;;;18.75;3.95;;;19.40;90.30;;;;;;5090708;28;20052;-90
2023/05/26 09:31:52;;;;;;;12.38;3.22;;;19.30;90.20;;;;;;5072862;28;20055;-89
2023/05/26 09:34:38;;;;;;;18.55;3.28;;;19.30;90.40;;;;;;5073259;28;20408;-86
2023/05/26 09:37:30;;;;;;;19.35;4.35;;;19.40;90.80;;;;;;5090534;28;20059;-90
2023/05/26 09:40:20;;;;;;;17.73;4.35;;;19.60;90.90;;;;;;5090723;28;20138;-88
2023/05/26 09:43:06;;;;;;;15.23;3.90;;;19.40;90.70;;;;;;5072442;28;20051;-89
2023/05/26 09:45:52;;;;;;;18.15;4.55;;;19.60;90.60;;;;;;5091300;28;20104;-89
2023/05/26 09:48:38;;;;;;;21.30;4.63;;;19.50;90.50;;;;;;5072934;28;20047;-89
2023/05/26 09:51:30;;;;;;;17.95;4.05;;;19.60;90.20;;;;;;5073029;28;20572;-83
2023/05/26 09:54:16;;;;;;;17.23;3.92;;;19.60;90.10;;;;;;5071834;28;20054;-86
2023/05/26 09:57:05;;;;;;;16.67;4.07;;;19.70;90.40;;;;;;5090360;28;20058;-90
2023/05/26 09:59:54;;;;;;;29.10;5.10;;;20.00;90.50;;;;;;5071599;28;20059;-90
2023/05/26 10:02:41;;;;;;;14.15;4.03;;;20.20;90.30;;;;;;5072009;28;20051;-87
2023/05/26 10:05:32;;;;;;;16.70;3.70;;;20.20;90.50;;;;;;5071422;28;20048;-88
2023/05/26 10:08:19;;;;;;;21.50;4.80;;;20.30;90.60;;;;;;5071592;28;20486;-84
2023/05/26 10:11:06;;;;;;;20.40;4.38;;;20.70;90.20;;;;;;5071906;28;20393;-85
2023/05/26 10:13:54;;;;;;;17.98;4.97;;;20.80;90.00;;;;;;5090304;28;20087;-86
2023/05/26 10:16:42;;;;;;;23.85;6.18;;;20.90;88.40;;;;;;5071981;28;20048;-84
2023/05/26 10:19:28;;;;;;;25.05;4.43;;;20.90;88.90;;;;;;5090023;28;20137;-87
2023/05/26 10:22:20;;;;;;;19.27;4.20;;;20.90;88.20;;;;;;5090103;28;20051;-83
2023/05/26 10:25:17;;;;;;;20.17;4.07;;;21.00;86.20;;;;;;5072276;28;20052;-83
2023/05/26 10:28:30;;;;;;;19.15;4.38;;;21.00;85.40;;;;;;5071993;28;20048;-85
2023/05/26 10:31:30;;;;;;;21.08;4.50;;;21.10;85.60;;;;;;5071822;28;20060;-82
2023/05/26 10:34:42;;;;;;;22.00;3.78;;;21.30;86.70;;;;;;5090491;28;20052;-83
2023/05/26 10:37:28;;;;;;;17.13;4.03;;;21.50;85.70;;;;;;5095984;28;20452;-82
2023/05/26 10:40:33;;;;;;;19.27;4.60;;;21.40;86.70;;;;;;5097728;28;20063;-82
2023/05/26 10:43:24;;;;;;;23.85;4.45;;;21.30;84.20;;;;;;5098514;28;20044;-80
2023/05/26 10:46:10;;;;;;;24.63;4.88;;;21.30;85.90;;;;;;5089209;28;20048;-82
2023/05/26 10:48:58;;;;;;;18.20;4.22;;;21.10;86.70;;;;;;5071946;28;20055;-82
2023/05/26 10:51:53;;;;;;;17.98;4.10;;;21.00;88.20;;;;;;5071264;28;20052;-81
2023/05/26 10:54:42;;;;;;;17.65;4.20;;;20.90;87.40;;;;;;5071615;28;20047;-81
2023/05/26 10:57:33;;;;;;;22.25;4.53;;;21.20;87.50;;;;;;5071881;28;20063;-82
2023/05/26 11:00:26;;;;;;;16.30;4.47;;;21.40;86.20;;;;;;5089367;28;20059;-82
2023/05/26 11:03:38;;;;;;;19.60;3.70;;;21.60;86.20;;;;;;5071684;28;20048;-80
2023/05/26 11:06:47;;;;;;;21.23;4.38;;;21.40;83.10;;;;;;5089728;28;20052;-81
2023/05/26 11:09:33;;;;;;;16.90;4.15;;;21.40;83.90;;;;;;5058833;28;20132;-80
2023/05/26 11:12:20;;;;;;;20.65;4.45;;;21.50;84.90;;;;;;5071899;28;20484;-80
2023/05/26 11:15:28;;;;;;;19.48;4.88;;;21.80;84.50;;;;;;5092506;28;20488;-81
2023/05/26 11:18:16;;;;;;;19.05;4.90;;;22.10;81.60;;;;;;5093623;28;20056;-81
2023/05/26 11:21:05;;;;;;;21.58;4.20;;;22.10;82.80;;;;;;5093369;28;20797;-81
2023/05/26 11:23:56;;;;;;;19.08;4.30;;;22.00;82.90;;;;;;5075271;28;20139;-81
2023/05/26 11:26:43;;;;;;;19.48;4.38;;;22.10;82.40;;;;;;5078425;28;20052;-83
2023/05/26 11:29:30;;;;;;;18.27;4.63;;;21.90;83.00;;;;;;5074489;28;20109;-82
2023/05/26 11:32:16;;;;;;;18.65;4.95;;;21.80;81.50;;;;;;5092993;28;20086;-82
2023/05/26 11:35:03;;;;;;;17.88;4.80;;;21.80;82.40;;;;;;5074584;28;20052;-81
2023/05/26 11:37:49;;;;;;;16.08;3.90;;;21.90;83.20;;;;;;5047449;28;20476;-81
2023/05/26 11:40:35;;;;;;;17.27;4.65;;;22.30;83.10;;;;;;5091690;28;20047;-82
2023/05/26 11:43:23;;;;;;;19.13;3.83;;;22.60;83.30;;;;;;5091501;28;20396;-80
2023/05/26 11:46:12;;;;;;;23.95;5.28;;;22.70;82.20;;;;;;5074976;28;20167;-81
2023/05/26 11:49:00;;;;;;;15.70;3.92;;;23.00;82.20;;;;;;5074609;28;20047;-82
2023/05/26 11:51:48;;;;;;;24.08;4.97;;;22.80;81.10;;;;;;5092972;28;20446;-82
2023/05/26 11:54:34;;;;;;;16.30;4.10;;;22.50;81.20;;;;;;5074485;28;20514;-83
2023/05/26 11:57:24;;;;;;;22.17;4.00;;;22.20;81.30;;;;;;5092680;28;20056;-83
2023/05/26 12:00:18;;;;;;;20.83;4.32;;;22.20;81.60;;;;;;5092310;28;20044;-81
2023/05/26 12:03:04;;;;;;;23.65;4.70;;;22.20;80.10;;;;;;5092100;28;20048;-81
2023/05/26 12:05:50;;;;;;;13.15;3.53;;;21.70;80.80;;;;;;5092503;28;20453;-80
2023/05/26 12:08:44;;;;;;;17.20;4.97;;;21.50;83.00;;;;;;5075028;28;20048;-81
2023/05/26 12:11:37;;;;;;;21.85;4.53;;;21.90;84.40;;;;;;5092262;28;20534;-81
2023/05/26 12:14:23;;;;;;;23.30;4.68;;;22.00;83.50;;;;;;5073840;28;20458;-83
2023/05/26 12:17:13;;;;;;;22.40;5.70;;;21.70;83.10;;;;;;5090958;28;20046;-82
2023/05/26 12:20:00;;;;;;;24.52;5.88;;;22.10;84.50;;;;;;5092022;28;20055;-81
2023/05/26 12:22:50;;;;;;;18.58;4.35;;;22.20;82.60;;;;;;5075999;28;20496;-81
2023/05/26 12:25:36;;;;;;;25.05;5.72;;;22.20;82.30;;;;;;5074016;28;20060;-81
2023/05/26 12:28:22;;;;;;;14.80;4.28;;;22.80;83.60;;;;;;5091701;28;20056;-80
2023/05/26 12:31:08;;;;;;;19.92;4.28;;;22.90;81.50;;;;;;5091505;28;20113;-84
2023/05/26 12:33:54;;;;;;;20.25;4.95;;;23.30;81.70;;;;;;5091674;28;20512;-82
2023/05/26 12:36:41;;;;;;;21.08;4.25;;;23.50;80.10;;;;;;5089873;28;20511;-82
2023/05/26 12:39:28;;;;;;;17.27;4.32;;;23.40;80.00;;;;;;5092023;28;20052;-82
2023/05/26 12:42:14;;;;;;;18.98;4.72;;;23.40;78.10;;;;;;5091647;28;20129;-82
2023/05/26 12:45:00;;;;;;;23.75;5.25;;;23.50;78.50;;;;;;5090130;28;20083;-82
2023/05/26 12:47:46;;;;;;;22.80;4.70;;;23.30;80.20;;;;;;5073459;28;20496;-82
2023/05/26 12:50:32;;;;;;;25.63;4.47;;;23.00;80.10;;;;;;5091050;28;20051;-80
2023/05/26 12:53:18;;;;;;;20.23;4.93;;;22.90;79.20;;;;;;5091734;28;20080;-82
2023/05/26 12:56:04;;;;;;;21.15;5.05;;;23.50;80.10;;;;;;5073165;28;20052;-83
2023/05/26 12:58:50;;;;;;;15.70;4.32;;;23.80;79.00;;;;;;5090043;28;20058;-81
2023/05/26 13:01:37;;;;;;;16.92;4.43;;;23.90;78.30;;;;;;5072987;28;20055;-90
2023/05/26 13:04:23;;;;;;;18.55;4.55;;;24.20;78.10;;;;;;5073192;28;20138;-88
2023/05/26 13:07:09;;;;;;;17.23;4.30;;;23.90;77.70;;;;;;5091270;28;20070;-91
2023/05/26 13:09:58;;;;;;;20.10;4.50;;;24.30;78.30;;;;;;5091858;28;20036;-90
2023/05/26 13:12:44;;;;;;;22.13;6.13;;;24.20;77.20;;;;;;5091352;28;20056;-90
2023/05/26 13:15:30;;;;;;;26.10;5.25;;;25.20;76.60;;;;;;5073202;28;20059;-91
2023/05/26 13:18:17;;;;;;;18.40;4.43;;;24.90;75.30;;;;;;5090961;28;20455;-91
2023/05/26 13:21:05;;;;;;;18.08;4.70;;;24.80;76.10;;;;;;5075396;28;20526;-89
2023/05/26 13:23:51;;;;;;;21.45;3.67;;;24.90;73.50;;;;;;5074449;28;20306;-87
2023/05/26 13:26:38;;;;;;;16.65;4.18;;;25.30;74.70;;;;;;5090772;28;20091;-89
2023/05/26 13:29:24;;;;;;;17.42;3.90;;;25.20;73.40;;;;;;5075342;28;20062;-88
2023/05/26 13:32:10;;;;;;;18.05;4.72;;;25.40;73.70;;;;;;5090849;28;20063;-89
2023/05/26 13:34:56;;;;;;;17.75;3.85;;;24.90;72.20;;;;;;5090203;28;20056;-92
2023/05/26 13:37:42;;;;;;;16.85;4.53;;;24.60;72.20;;;;;;5072691;28;20621;-88
2023/05/26 13:40:28;;;;;;;19.77;4.82;;;24.40;73.30;;;;;;5089539;28;20071;-84
2023/05/26 13:43:14;;;;;;;18.65;5.00;;;24.50;72.90;;;;;;5072615;28;20396;-90
2023/05/26 13:46:00;;;;;;;22.05;4.55;;;23.80;73.50;;;;;;5072990;28;20052;-90
2023/05/26 13:48:46;;;;;;;25.40;4.75;;;23.20;74.50;;;;;;5091792;28;20060;-84
2023/05/26 13:51:32;;;;;;;18.83;4.45;;;22.80;75.20;;;;;;5090719;28;20058;-87
2023/05/26 13:54:18;;;;;;;16.48;4.25;;;22.00;77.20;;;;;;5072438;28;20139;-88
2023/05/26 13:57:05;;;;;;;18.48;4.78;;;21.70;79.50;;;;;;5090312;28;20052;-86
2023/05/26 13:59:51;;;;;;;17.92;4.90;;;21.40;81.00;;;;;;5090556;28;20044;-89
2023/05/26 14:02:37;;;;;;;23.63;4.53;;;22.20;82.30;;;;;;5073183;28;20745;-87
2023/05/26 14:05:23;;;;;;;21.50;4.40;;;23.30;80.80;;;;;;5090050;28;20070;-86
2023/05/26 14:08:09;;;;;;;17.10;4.45;;;23.90;76.70;;;;;;5072278;28;20488;-90
2023/05/26 14:10:55;;;;;;;15.18;4.18;;;24.10;77.40;;;;;;5071951;28;20075;-90
2023/05/26 14:13:42;;;;;;;22.80;5.40;;;24.20;76.00;;;;;;5090129;28;20051;-89
2023/05/26 14:16:28;;;;;;;17.67;4.50;;;24.80;75.40;;;;;;5072982;28;20059;-85
2023/05/26 14:19:14;;;;;;;13.50;3.67;;;25.40;73.70;;;;;;5073050;28;20091;-87
2023/05/26 14:22:01;;;;;;;17.15;4.10;;;25.40;71.70;;;;;;5091587;28;20101;-89
2023/05/26 14:24:47;;;;;;;12.32;3.72;;;25.80;72.00;;;;;;5072711;28;20147;-84
2023/05/26 14:27:33;;;;;;;16.83;3.97;;;25.70;70.40;;;;;;5090922;28;20102;-84